Time;durP1;ratioP1;P1;durP2;ratioP2;P2;SDS_P1;SDS_P2;PMS_P1;PMS_P2;Temp;Humidity;BMP_temperature;BMP_pressure;BME280_temperature;BME280_humidity;BME280_pressure;Samples;Min_cycle;Max_cycle;Signal;HPM_P1;HPM_P2
2022/03/18 00:01:05;;;;;;;26.65;11.20;;;6.00;99.90;;;2.64;100.00;102735.47;4953836;28;20075;-94
2022/03/18 00:03:35;;;;;;;24.92;11.27;;;5.90;99.90;;;2.80;100.00;102745.44;4970261;28;20057;-93
2022/03/18 00:06:21;;;;;;;22.67;11.55;;;5.90;99.90;;;2.71;100.00;102744.97;4937735;29;20051;-94
2022/03/18 00:08:50;;;;;;;22.15;11.98;;;5.80;99.90;;;2.64;100.00;102735.47;4952168;28;20043;-93
2022/03/18 00:11:18;;;;;;;28.42;12.77;;;5.90;99.90;;;2.70;100.00;102751.31;4952124;29;20047;-93
2022/03/18 00:13:47;;;;;;;24.10;11.27;;;5.90;99.90;;;2.60;100.00;102733.03;4940677;28;20514;-94
2022/03/18 00:16:14;;;;;;;25.25;12.68;;;5.80;99.90;;;2.62;100.00;102763.41;5030170;22;20069;-83
2022/03/18 00:18:41;;;;;;;21.20;11.13;;;5.80;99.90;;;2.53;100.00;102764.72;5030311;28;20741;-83
2022/03/18 00:21:08;;;;;;;22.05;11.23;;;5.70;99.90;;;2.54;100.00;102771.84;5030006;28;20041;-83
2022/03/18 00:23:36;;;;;;;23.48;11.45;;;5.70;99.90;;;2.54;100.00;102771.84;5030237;28;20138;-82
2022/03/18 00:26:03;;;;;;;26.55;12.93;;;5.70;99.90;;;2.53;100.00;102764.72;5016098;28;20050;-82
2022/03/18 00:28:30;;;;;;;25.13;13.32;;;5.70;99.90;;;2.58;100.00;102772.56;5008709;28;20073;-82
2022/03/18 00:30:59;;;;;;;25.33;13.38;;;5.60;99.90;;;2.54;100.00;102769.16;5000765;28;20137;-82
2022/03/18 00:33:27;;;;;;;27.20;13.25;;;5.60;99.90;;;2.50;100.00;102770.28;5009968;28;20076;-82
2022/03/18 00:35:54;;;;;;;26.35;13.95;;;5.60;99.90;;;2.52;100.00;102769.22;5010117;28;20095;-83
2022/03/18 00:38:21;;;;;;;28.48;14.38;;;5.60;99.90;;;2.52;100.00;102768.38;5010248;28;20816;-82
2022/03/18 00:40:50;;;;;;;27.95;13.88;;;5.60;99.90;;;2.54;100.00;102766.47;5006599;28;20070;-82
2022/03/18 00:43:18;;;;;;;37.70;14.98;;;5.60;99.90;;;2.53;100.00;102760.25;5009972;28;20038;-83
2022/03/18 00:45:45;;;;;;;29.85;13.65;;;5.60;99.90;;;2.61;100.00;102762.53;5004959;28;20046;-83
2022/03/18 00:53:43;;;;;;;27.65;13.32;;;5.60;99.90;;;2.33;100.00;102766.59;5009932;28;20530;-83
2022/03/18 00:56:10;;;;;;;26.98;13.02;;;5.50;99.90;;;2.29;100.00;102770.38;5010275;28;20065;-83
2022/03/18 00:58:38;;;;;;;22.73;12.07;;;5.40;99.90;;;2.22;100.00;102781.50;5009994;28;20046;-84
2022/03/18 01:01:05;;;;;;;22.50;12.00;;;5.40;99.90;;;2.20;100.00;102783.38;5008605;28;20499;-83
2022/03/18 01:03:34;;;;;;;26.15;12.55;;;5.40;99.90;;;2.20;100.00;102795.00;4994260;28;20071;-83
2022/03/18 01:06:01;;;;;;;29.50;13.35;;;5.30;99.90;;;2.14;100.00;102800.66;4995164;28;20046;-83
2022/03/18 01:08:29;;;;;;;19.27;11.65;;;5.30;99.90;;;2.09;100.00;102794.63;4991463;28;20424;-83
2022/03/18 01:10:56;;;;;;;21.48;11.90;;;5.30;99.90;;;2.14;100.00;102806.03;4999301;28;20061;-84
2022/03/18 01:13:24;;;;;;;25.02;12.38;;;5.30;99.90;;;2.17;100.00;102800.53;5009976;28;20081;-83
2022/03/18 01:15:52;;;;;;;25.73;11.85;;;5.20;99.90;;;2.14;100.00;102801.53;5009563;28;20050;-83
2022/03/18 01:18:19;;;;;;;20.15;11.48;;;5.30;99.90;;;2.13;100.00;102799.81;4992111;28;20076;-83
2022/03/18 01:20:48;;;;;;;25.55;12.13;;;5.20;99.90;;;2.17;100.00;102803.22;5004829;28;20046;-83
2022/03/18 01:23:15;;;;;;;24.02;11.82;;;5.20;99.90;;;2.10;100.00;102801.75;4990727;28;20073;-83
2022/03/18 01:25:43;;;;;;;26.95;12.45;;;5.20;99.90;;;2.15;100.00;102799.72;5000736;28;20100;-83
2022/03/18 01:28:10;;;;;;;21.52;12.07;;;5.20;99.90;;;2.09;100.00;102810.75;5009993;28;20149;-83
2022/03/18 01:30:37;;;;;;;26.42;12.43;;;5.20;99.90;;;2.00;100.00;102800.44;5009496;28;20117;-84
2022/03/18 01:33:04;;;;;;;31.40;12.43;;;5.20;99.90;;;1.93;100.00;102803.41;5009323;28;20038;-83
2022/03/18 01:35:32;;;;;;;24.88;12.10;;;5.10;99.90;;;1.93;100.00;102808.78;5009580;28;20042;-83
2022/03/18 01:38:00;;;;;;;24.63;11.70;;;5.10;99.90;;;1.88;100.00;102800.06;5007859;28;20050;-83
2022/03/18 01:40:27;;;;;;;21.33;12.18;;;5.00;99.90;;;1.90;100.00;102805.38;5009502;28;20049;-83
2022/03/18 01:42:55;;;;;;;27.92;11.52;;;5.00;99.90;;;1.98;100.00;102810.38;4995506;28;20114;-83
2022/03/18 01:45:22;;;;;;;28.20;12.52;;;5.00;99.90;;;1.93;100.00;102808.78;5004734;28;20418;-83
2022/03/18 01:47:49;;;;;;;24.05;11.25;;;5.00;99.90;;;1.87;100.00;102811.78;5009259;28;20399;-83
2022/03/18 01:50:17;;;;;;;23.75;11.70;;;5.00;99.90;;;1.85;100.00;102810.97;5009103;28;20130;-81
2022/03/18 01:52:46;;;;;;;24.25;12.13;;;5.00;99.90;;;1.81;100.00;102809.38;5009517;28;20041;-83
2022/03/18 01:55:15;;;;;;;22.23;11.38;;;5.00;99.90;;;1.82;100.00;102821.84;5009391;28;20129;-83
2022/03/18 01:57:43;;;;;;;24.45;11.60;;;5.00;99.90;;;1.74;100.00;102824.88;5009924;28;20466;-83
2022/03/18 02:00:12;;;;;;;21.08;11.30;;;4.90;99.90;;;1.68;100.00;102819.78;5000860;28;20046;-83
2022/03/18 02:02:39;;;;;;;22.55;11.55;;;4.90;99.90;;;1.75;100.00;102831.09;4998226;28;20042;-83
2022/03/18 02:05:09;;;;;;;23.35;11.60;;;4.90;99.90;;;1.71;100.00;102824.16;4998709;28;20045;-83
2022/03/18 02:07:37;;;;;;;23.02;11.60;;;4.90;99.90;;;1.66;100.00;102835.09;5009490;28;20122;-84
2022/03/18 02:10:06;;;;;;;26.13;11.45;;;4.90;99.90;;;1.62;100.00;102832.59;5009006;28;20100;-83
2022/03/18 02:12:35;;;;;;;20.42;9.77;;;4.80;99.90;;;1.53;100.00;102837.47;5009405;28;20049;-84
2022/03/18 02:15:03;;;;;;;19.13;10.15;;;4.80;99.90;;;1.57;100.00;102838.19;5008020;28;20046;-83
2022/03/18 02:17:30;;;;;;;20.20;10.75;;;4.80;99.90;;;1.58;100.00;102848.00;5006853;28;20092;-83
2022/03/18 02:19:58;;;;;;;24.17;10.57;;;4.80;99.90;;;1.56;100.00;102840.00;4972174;28;20046;-83
2022/03/18 02:22:26;;;;;;;20.73;10.13;;;4.80;99.90;;;1.60;100.00;102853.28;4979930;28;20116;-83
2022/03/18 02:24:56;;;;;;;18.92;10.27;;;4.80;99.90;;;1.52;100.00;102862.56;4991414;28;20479;-83
2022/03/18 02:27:24;;;;;;;20.38;10.70;;;4.70;99.90;;;1.48;100.00;102866.28;5009054;28;20052;-83
2022/03/18 02:29:51;;;;;;;18.75;9.63;;;4.70;99.90;;;1.57;100.00;102859.66;5008821;28;20056;-83
2022/03/18 02:32:20;;;;;;;19.75;9.77;;;4.60;99.90;;;1.54;100.00;102866.06;5007916;28;20120;-83
2022/03/18 02:34:48;;;;;;;21.33;9.95;;;4.60;99.90;;;1.53;100.00;102875.03;5004748;28;20798;-83
2022/03/18 02:37:15;;;;;;;18.15;9.55;;;4.60;99.90;;;1.50;100.00;102869.78;5006333;28;20038;-83
2022/03/18 02:39:42;;;;;;;17.80;9.68;;;4.60;99.90;;;1.53;100.00;102864.28;5008434;28;20053;-83
2022/03/18 02:42:11;;;;;;;18.77;10.30;;;4.60;99.90;;;1.46;100.00;102865.50;5005985;28;20049;-83
2022/03/18 02:44:38;;;;;;;16.63;9.05;;;4.60;99.90;;;1.56;100.00;102874.00;5008792;28;20411;-83
2022/03/18 02:47:07;;;;;;;17.42;8.98;;;4.60;99.90;;;1.56;100.00;102885.63;5009278;28;20073;-83
2022/03/18 02:49:34;;;;;;;18.08;9.25;;;4.60;99.90;;;1.51;100.00;102886.78;5006900;28;20385;-83
2022/03/18 02:52:01;;;;;;;17.65;9.57;;;4.60;99.90;;;1.47;100.00;102885.19;4998713;28;20045;-83
2022/03/18 02:54:28;;;;;;;20.27;9.80;;;4.50;99.90;;;1.45;100.00;102870.97;5008816;28;20038;-83
2022/03/18 02:56:56;;;;;;;21.50;9.88;;;4.60;99.90;;;1.49;100.00;102878.78;5012628;28;20068;-83
2022/03/18 02:59:24;;;;;;;20.77;10.18;;;4.50;99.90;;;1.49;100.00;102878.78;5012348;28;20124;-83
2022/03/18 03:01:51;;;;;;;20.20;10.13;;;4.60;99.90;;;1.42;100.00;102882.66;5011996;28;20129;-83
2022/03/18 03:04:19;;;;;;;17.90;9.55;;;4.60;99.90;;;1.42;100.00;102888.03;4994653;28;20523;-83
2022/03/18 03:09:30;;;;;;;19.45;9.20;;;4.50;99.90;;;1.35;100.00;102903.53;4970766;28;20132;-83
2022/03/18 03:11:57;;;;;;;19.17;8.98;;;4.40;99.90;;;1.29;100.00;102900.22;5004104;28;20080;-83
2022/03/18 03:14:26;;;;;;;19.23;9.50;;;4.50;99.90;;;1.20;100.00;102909.56;5011969;28;20125;-84
2022/03/18 03:16:54;;;;;;;19.00;8.93;;;4.40;99.90;;;1.19;100.00;102905.13;5012414;28;20136;-83
2022/03/18 03:19:21;;;;;;;19.27;10.00;;;4.40;99.90;;;1.22;100.00;102906.78;5012132;28;20070;-83
2022/03/18 03:21:48;;;;;;;26.20;11.20;;;4.30;99.90;;;1.22;100.00;102901.44;5011635;28;20512;-83
2022/03/18 03:24:16;;;;;;;21.70;11.90;;;4.40;99.90;;;1.20;100.00;102904.19;5011981;28;20042;-83
2022/03/18 03:26:43;;;;;;;24.23;12.23;;;4.30;99.90;;;1.31;100.00;102907.31;4999243;28;20077;-83
2022/03/18 03:29:10;;;;;;;25.35;12.18;;;4.30;99.90;;;1.20;100.00;102914.94;5007198;28;20498;-83
2022/03/18 03:31:39;;;;;;;21.58;11.70;;;4.30;99.90;;;1.13;100.00;102903.56;4994098;28;20085;-83
2022/03/18 03:34:06;;;;;;;23.23;12.13;;;4.30;99.90;;;1.03;100.00;102912.94;5011692;28;20519;-83
2022/03/18 03:36:33;;;;;;;22.90;11.90;;;4.20;99.90;;;1.00;100.00;102913.06;5011841;28;20134;-83
2022/03/18 03:39:01;;;;;;;25.00;12.23;;;4.20;99.90;;;1.04;100.00;102913.81;5011996;28;20407;-84
2022/03/18 03:41:28;;;;;;;26.08;12.38;;;4.20;99.90;;;1.08;100.00;102916.28;4992867;28;20052;-83
2022/03/18 03:43:55;;;;;;;29.65;13.52;;;4.10;99.90;;;1.11;100.00;102918.84;5003266;28;20494;-84
2022/03/18 03:46:22;;;;;;;21.75;12.05;;;4.10;99.90;;;1.13;100.00;102924.16;5000238;28;20077;-83
2022/03/18 03:48:51;;;;;;;25.63;12.27;;;4.10;99.90;;;1.04;100.00;102914.66;5011889;28;20129;-84
2022/03/18 03:51:18;;;;;;;25.10;11.75;;;4.10;99.90;;;1.13;100.00;102910.75;5011204;28;20160;-84
2022/03/18 03:53:45;;;;;;;28.83;12.20;;;4.10;99.90;;;1.07;100.00;102919.91;5011627;28;20034;-84
2022/03/18 03:56:13;;;;;;;23.88;11.43;;;4.10;99.90;;;1.09;100.00;102912.69;4993416;28;20516;-83
2022/03/18 03:58:40;;;;;;;25.98;11.25;;;4.10;99.90;;;1.04;100.00;102914.66;5011309;28;20420;-83
2022/03/18 04:01:07;;;;;;;26.25;11.20;;;4.00;99.90;;;0.93;100.00;102919.59;5000467;28;20073;-83
2022/03/18 04:03:35;;;;;;;20.02;11.40;;;4.00;99.90;;;0.89;100.00;102924.22;5008365;28;20556;-84
2022/03/18 04:06:04;;;;;;;31.20;12.30;;;4.00;99.90;;;0.96;100.00;102922.16;4997082;28;20042;-84
2022/03/18 04:08:31;;;;;;;22.20;11.10;;;4.00;99.90;;;0.94;100.00;102924.03;4991616;28;20062;-84
2022/03/18 04:10:58;;;;;;;22.15;11.15;;;4.00;99.90;;;0.84;100.00;102923.53;5002587;28;20108;-84
2022/03/18 04:13:25;;;;;;;29.23;11.20;;;4.00;99.90;;;0.77;100.00;102928.25;5011139;28;20038;-83
2022/03/18 04:15:53;;;;;;;21.90;11.48;;;4.00;99.90;;;0.69;100.00;102930.38;5010597;28;20554;-83
2022/03/18 04:18:20;;;;;;;20.00;11.30;;;4.00;99.90;;;0.66;100.00;102933.19;4993324;28;20085;-83
2022/03/18 04:20:47;;;;;;;23.80;10.82;;;3.90;99.90;;;0.59;100.00;102934.34;5003055;28;20141;-83
2022/03/18 04:23:16;;;;;;;19.27;10.48;;;3.90;99.90;;;0.56;100.00;102938.03;4995071;28;20046;-83
2022/03/18 04:25:43;;;;;;;23.30;10.73;;;3.90;99.90;;;0.51;100.00;102941.81;5001510;28;20618;-83
2022/03/18 04:28:11;;;;;;;19.35;9.88;;;3.80;99.90;;;0.49;100.00;102944.53;5010564;28;20052;-83
2022/03/18 04:30:39;;;;;;;22.17;10.65;;;3.80;99.90;;;0.55;100.00;102938.06;5004240;28;20052;-84
2022/03/18 04:33:06;;;;;;;19.20;10.48;;;3.80;99.90;;;0.57;100.00;102936.22;4991136;28;20085;-83
2022/03/18 04:35:33;;;;;;;23.38;10.82;;;3.70;99.90;;;0.58;100.00;102943.31;4993029;28;20153;-83
2022/03/18 04:38:01;;;;;;;19.63;9.75;;;3.70;99.90;;;0.50;100.00;102946.31;5010524;28;20092;-83
2022/03/18 04:40:31;;;;;;;21.30;10.05;;;3.70;99.90;;;0.43;100.00;102946.59;5009779;28;20436;-83
2022/03/18 04:42:58;;;;;;;19.67;10.50;;;3.60;99.90;;;0.42;100.00;102931.44;5002493;28;20039;-83
2022/03/18 04:45:26;;;;;;;20.05;10.77;;;3.70;99.90;;;0.39;100.00;102949.38;5007572;28;20444;-83
2022/03/18 04:47:54;;;;;;;21.13;10.40;;;3.60;99.90;;;0.36;100.00;102949.53;5007032;28;20056;-83
2022/03/18 04:50:22;;;;;;;18.75;10.25;;;3.60;99.90;;;0.34;100.00;102951.38;5009986;28;20576;-84
2022/03/18 04:52:49;;;;;;;18.45;10.45;;;3.60;99.90;;;0.33;100.00;102951.44;5008760;28;20075;-84
2022/03/18 04:55:16;;;;;;;20.02;10.05;;;3.60;99.90;;;0.27;100.00;102960.59;5009687;28;20073;-84
2022/03/18 04:57:45;;;;;;;18.60;10.68;;;3.60;99.90;;;0.31;100.00;102956.84;4997184;28;20065;-83
2022/03/18 05:00:13;;;;;;;19.35;10.20;;;3.60;99.90;;;0.35;100.00;102958.47;4993893;28;20050;-84
2022/03/18 05:02:41;;;;;;;19.70;9.93;;;3.60;99.90;;;0.31;100.00;102969.38;5000186;28;20056;-84
2022/03/18 05:05:10;;;;;;;17.60;10.05;;;3.50;99.90;;;0.28;100.00;102977.50;4992277;28;20424;-83
2022/03/18 05:07:38;;;;;;;17.25;10.02;;;3.50;99.90;;;0.28;100.00;102973.03;5009714;28;20396;-85
2022/03/18 05:10:07;;;;;;;22.35;10.13;;;3.50;99.90;;;0.25;100.00;102977.63;5009852;28;20042;-85
2022/03/18 05:12:35;;;;;;;19.77;10.05;;;3.50;99.90;;;0.27;100.00;102987.34;5009428;28;20571;-86
2022/03/18 05:15:04;;;;;;;21.95;10.02;;;3.40;99.90;;;0.28;100.00;102993.59;4992886;28;20124;-85
2022/03/18 05:17:32;;;;;;;21.15;9.60;;;3.40;99.90;;;0.27;100.00;102998.06;4998754;28;20102;-86
2022/03/18 05:19:59;;;;;;;20.58;10.25;;;3.40;99.90;;;0.34;100.00;102994.25;5003096;28;20046;-87
2022/03/18 05:22:26;;;;;;;20.35;10.20;;;3.50;99.90;;;0.45;100.00;103001.00;5008486;28;20136;-87
2022/03/18 05:24:54;;;;;;;21.83;9.45;;;3.50;99.90;;;0.49;100.00;103010.66;5009222;28;20112;-86
2022/03/18 05:27:21;;;;;;;17.88;10.05;;;3.50;99.90;;;0.49;100.00;103016.00;5009367;28;20053;-87
2022/03/18 05:29:48;;;;;;;23.20;10.73;;;3.50;99.90;;;0.56;100.00;103014.88;5008038;28;20054;-86
2022/03/18 05:32:17;;;;;;;19.02;10.05;;;3.50;99.90;;;0.61;100.00;103018.25;5009358;28;20045;-87
2022/03/18 05:34:44;;;;;;;25.60;10.10;;;3.60;99.90;;;0.61;100.00;103028.97;5003637;28;20510;-86
2022/03/18 05:37:12;;;;;;;19.35;9.88;;;3.60;99.90;;;0.59;100.00;103033.47;4997432;28;20575;-87
2022/03/18 05:39:40;;;;;;;20.00;10.23;;;3.60;99.90;;;0.61;100.00;103036.09;5009070;28;20069;-87
2022/03/18 05:42:08;;;;;;;19.23;10.60;;;3.60;99.90;;;0.70;100.00;103043.81;5002127;28;20133;-87
2022/03/18 05:44:35;;;;;;;23.10;9.57;;;3.60;99.90;;;0.70;100.00;103044.66;4989415;28;20081;-86
2022/03/18 05:47:03;;;;;;;21.42;9.85;;;3.60;99.90;;;0.80;100.00;103045.22;5007656;28;20041;-86
2022/03/18 05:49:31;;;;;;;17.27;10.00;;;3.70;99.90;;;0.93;100.00;103043.81;5008244;28;20046;-86
2022/03/18 05:51:59;;;;;;;20.50;9.68;;;3.70;99.90;;;0.98;100.00;103044.50;5002636;28;20126;-85
2022/03/18 05:54:26;;;;;;;23.02;9.35;;;3.70;99.90;;;0.99;100.00;103050.75;4998803;28;20125;-86
2022/03/18 05:56:53;;;;;;;20.30;9.13;;;3.80;99.90;;;1.02;100.00;103058.66;5009253;28;20759;-86
2022/03/18 05:59:21;;;;;;;19.90;10.05;;;3.80;99.90;;;0.92;100.00;103058.16;5007882;28;20053;-86
2022/03/18 06:01:48;;;;;;;16.23;9.00;;;3.80;99.90;;;0.84;100.00;103056.69;5007655;28;20116;-86
2022/03/18 06:04:16;;;;;;;17.50;8.75;;;3.80;99.90;;;0.86;100.00;103061.06;5009761;28;20069;-86
2022/03/18 06:06:47;;;;;;;21.27;9.60;;;3.80;99.90;;;0.78;100.00;103053.31;5004583;28;20053;-86
2022/03/18 06:12:00;;;;;;;17.92;8.70;;;3.80;99.90;;;0.67;100.00;103079.66;4988797;28;20404;-86
2022/03/18 06:14:30;;;;;;;20.40;9.55;;;3.80;99.90;;;0.63;100.00;103078.03;4999604;28;20127;-85
2022/03/18 06:17:00;;;;;;;15.45;9.10;;;3.70;99.90;;;0.65;100.00;103085.97;5008763;28;20096;-85
2022/03/18 06:19:29;;;;;;;18.77;9.25;;;3.70;99.90;;;0.64;100.00;103087.78;5009609;28;20551;-84
2022/03/18 06:21:59;;;;;;;20.40;9.13;;;3.70;99.90;;;0.71;100.00;103100.03;5008942;28;20160;-85
2022/03/18 06:24:28;;;;;;;16.30;9.03;;;3.70;99.90;;;0.70;100.00;103097.41;4997102;28;20132;-85
2022/03/18 06:26:56;;;;;;;18.27;9.60;;;3.70;99.90;;;0.73;100.00;103089.28;5006035;28;20112;-85
2022/03/18 06:29:24;;;;;;;27.38;10.20;;;3.70;99.90;;;0.85;100.00;103082.56;5013099;28;20080;-85
2022/03/18 06:31:52;;;;;;;17.88;9.45;;;3.70;99.90;;;0.98;100.00;103094.56;5012421;28;20044;-87
2022/03/18 06:34:21;;;;;;;18.63;9.10;;;3.80;99.90;;;1.07;100.00;103088.84;5012534;28;20138;-87
2022/03/18 06:36:49;;;;;;;20.40;9.95;;;3.80;99.90;;;1.15;100.00;103093.94;5007126;28;20038;-85
2022/03/18 06:39:19;;;;;;;15.98;8.80;;;3.90;99.90;;;1.24;100.00;103101.63;5005058;28;20100;-84
2022/03/18 06:41:46;;;;;;;15.55;8.40;;;3.90;99.90;;;1.16;100.00;103109.06;5012268;28;20149;-83
2022/03/18 06:44:14;;;;;;;17.77;9.60;;;3.90;99.90;;;1.14;100.00;103108.25;5003967;28;20034;-83
2022/03/18 06:46:41;;;;;;;15.52;8.88;;;4.00;99.90;;;1.30;100.00;103113.91;4992832;28;20659;-84
2022/03/18 06:49:09;;;;;;;15.85;9.63;;;4.00;99.90;;;1.51;100.00;103113.06;5009925;28;20045;-83
2022/03/18 06:51:37;;;;;;;21.98;10.45;;;4.10;99.90;;;1.76;100.00;103117.44;5011135;28;20133;-84
2022/03/18 06:54:05;;;;;;;15.80;9.02;;;4.10;99.90;;;1.93;100.00;103114.91;5011294;28;20567;-83
2022/03/18 06:56:38;;;;;;;15.50;9.43;;;4.20;99.90;;;2.08;100.00;103126.84;5009813;28;20057;-85
2022/03/18 06:59:05;;;;;;;21.33;9.98;;;4.30;99.90;;;2.26;100.00;103132.34;5006272;28;20050;-88
2022/03/18 07:01:33;;;;;;;28.55;10.18;;;4.40;99.90;;;2.39;100.00;103113.91;5001121;28;20108;-88
2022/03/18 07:04:00;;;;;;;19.50;10.35;;;4.50;99.90;;;2.58;100.00;103130.94;5006293;28;20045;-88
2022/03/18 07:06:28;;;;;;;24.58;12.77;;;4.60;99.90;;;2.73;100.00;103138.34;4999360;28;20061;-89
2022/03/18 07:08:55;;;;;;;22.33;12.95;;;4.70;99.90;;;2.87;100.00;103129.63;5010049;28;20423;-88
2022/03/18 07:11:23;;;;;;;23.13;12.10;;;4.80;99.90;;;3.01;100.00;103129.03;5010175;28;20065;-89
2022/03/18 07:13:52;;;;;;;23.30;12.57;;;4.90;99.90;;;3.15;100.00;103130.19;5006899;28;20036;-89
2022/03/18 07:19:04;;;;;;;27.05;12.07;;;5.20;99.90;;;3.45;100.00;103120.66;5011552;28;20053;-88
2022/03/18 07:21:33;;;;;;;24.38;11.23;;;5.30;99.90;;;3.58;100.00;103120.06;4998919;28;20507;-89
2022/03/18 07:24:01;;;;;;;22.42;11.25;;;5.40;99.90;;;3.66;100.00;103112.50;5004680;28;20046;-89
2022/03/18 07:26:28;;;;;;;24.30;11.60;;;5.50;99.90;;;3.77;100.00;103120.03;4994711;28;20104;-89
2022/03/18 07:28:59;;;;;;;25.33;10.60;;;5.70;99.90;;;3.89;100.00;103114.06;5009360;28;20050;-89
2022/03/18 07:31:26;;;;;;;;;;;5.70;99.90;;;3.98;100.00;103118.97;5009096;28;20502;-89
2022/03/18 07:33:54;;;;;;;23.90;10.32;;;5.80;99.90;;;4.05;100.00;103112.31;5010289;28;19921;-89
2022/03/18 07:36:22;;;;;;;21.63;10.38;;;5.90;99.90;;;4.16;100.00;103116.31;5009693;28;20074;-88
2022/03/18 07:38:49;;;;;;;26.25;10.55;;;6.00;99.90;;;4.21;100.00;103112.41;5008439;28;20136;-88
2022/03/18 07:41:17;;;;;;;25.58;10.77;;;6.10;99.90;;;4.29;100.00;103112.03;5007941;28;20061;-87
2022/03/18 07:43:44;;;;;;;21.80;9.68;;;6.20;99.90;;;4.36;100.00;103117.94;5009521;28;20526;-87
2022/03/18 07:46:13;;;;;;;19.63;9.95;;;6.20;99.90;;;4.42;100.00;103121.22;5006065;28;20057;-88
2022/03/18 07:48:43;;;;;;;22.63;10.65;;;6.30;99.90;;;4.52;100.00;103120.75;5006431;28;20076;-88
2022/03/18 07:51:10;;;;;;;21.17;10.20;;;6.40;99.90;;;4.62;100.00;103120.16;5006292;28;20119;-89
2022/03/18 07:53:37;;;;;;;24.45;10.43;;;6.40;99.90;;;4.73;100.00;103122.28;5010126;28;20041;-88
2022/03/18 07:56:06;;;;;;;22.92;9.75;;;6.50;99.90;;;4.86;100.00;103117.97;5007010;28;20030;-88
2022/03/18 07:58:33;;;;;;;23.98;9.88;;;6.60;99.90;;;4.96;100.00;103114.78;5001022;28;20050;-89
2022/03/18 08:01:01;;;;;;;18.48;9.13;;;6.70;99.90;;;5.05;100.00;103115.13;5001890;28;20042;-88
2022/03/18 08:03:29;;;;;;;23.38;9.98;;;6.80;99.90;;;5.15;100.00;103112.81;5008744;28;20038;-88
2022/03/18 08:05:57;;;;;;;16.45;9.30;;;6.90;99.90;;;5.24;100.00;103111.44;5010515;28;20053;-89
2022/03/18 08:08:24;;;;;;;23.45;9.60;;;7.00;99.90;;;5.39;100.00;103120.50;5010555;28;20518;-87
2022/03/18 08:10:52;;;;;;;16.17;9.35;;;7.10;99.90;;;5.49;100.00;103114.47;5009241;28;20056;-90
2022/03/18 08:13:20;;;;;;;17.25;8.98;;;7.20;99.90;;;5.60;100.00;103124.69;5025925;28;20038;-86
2022/03/18 08:15:48;;;;;;;25.23;9.48;;;7.30;99.90;;;5.69;100.00;103131.38;5010468;28;20108;-86
2022/03/18 08:18:16;;;;;;;22.48;9.40;;;7.40;99.90;;;5.75;100.00;103128.34;5004774;28;20132;-86
2022/03/18 08:20:45;;;;;;;20.13;9.00;;;7.40;99.90;;;5.86;100.00;103128.59;4999178;28;20381;-85
2022/03/18 08:23:13;;;;;;;20.67;9.10;;;7.50;99.90;;;5.96;100.00;103130.75;5004211;28;20045;-84
2022/03/18 08:25:40;;;;;;;18.25;8.18;;;7.60;99.90;;;6.07;100.00;103139.13;4992726;28;20083;-87
2022/03/18 08:28:08;;;;;;;20.70;9.93;;;7.70;99.90;;;6.19;100.00;103143.81;5010028;28;20567;-85
2022/03/18 08:30:35;;;;;;;19.77;8.70;;;7.80;99.90;;;6.32;99.78;103152.06;5009818;28;20079;-86
2022/03/18 08:33:03;;;;;;;16.33;8.20;;;7.90;99.90;;;6.40;99.44;103157.03;4992024;28;20100;-85
2022/03/18 08:35:31;;;;;;;19.27;8.65;;;8.00;99.90;;;6.40;97.54;103157.03;5007014;28;20037;-87
2022/03/18 08:38:01;;;;;;;22.98;8.43;;;8.00;99.90;;;6.43;96.96;103163.09;4997851;28;20042;-88
2022/03/18 08:40:32;;;;;;;20.92;8.73;;;8.10;99.90;;;6.53;97.53;103163.44;5004888;28;20508;-88
2022/03/18 08:43:01;;;;;;;16.55;7.47;;;8.20;99.90;;;6.59;97.23;103168.47;4989966;28;20140;-88
2022/03/18 08:45:30;;;;;;;18.17;7.70;;;8.30;99.90;;;6.68;96.40;103163.44;4994762;28;20052;-88
2022/03/18 08:47:57;;;;;;;16.15;7.32;;;8.30;99.90;;;6.73;96.56;103169.47;5009219;28;20092;-88
2022/03/18 08:50:25;;;;;;;15.23;7.15;;;8.40;99.90;;;6.82;96.56;103179.72;5009930;28;20041;-88
2022/03/18 08:52:55;;;;;;;23.35;7.35;;;8.50;99.90;;;6.94;96.77;103188.91;5007792;28;20058;-88
2022/03/18 08:55:25;;;;;;;21.95;7.20;;;8.60;99.90;;;6.98;95.67;103185.91;5008982;28;20069;-89
2022/03/18 08:57:52;;;;;;;13.45;4.88;;;8.60;99.50;;;6.97;90.96;103195.03;5008191;28;20140;-89
2022/03/18 09:00:20;;;;;;;13.93;4.03;;;8.70;97.80;;;6.96;89.39;103201.38;5008696;28;20096;-88
2022/03/18 09:02:49;;;;;;;11.27;4.43;;;8.60;95.90;;;6.97;85.33;103205.84;5009040;28;20540;-88
2022/03/18 09:05:17;;;;;;;9.27;4.05;;;8.60;93.90;;;6.99;88.33;103203.91;5009308;28;20077;-88
2022/03/18 09:07:45;;;;;;;13.48;4.93;;;8.60;94.50;;;7.04;87.88;103201.81;5009437;28;20037;-88
2022/03/18 09:10:13;;;;;;;12.13;4.22;;;8.70;94.60;;;7.08;85.48;103201.59;4999396;28;20038;-81
2022/03/18 09:12:48;;;;;;;10.15;4.15;;;8.70;93.50;;;7.12;85.95;103213.97;4991341;28;20080;-81
2022/03/18 09:15:16;;;;;;;13.82;4.63;;;8.80;93.80;;;7.20;86.41;103217.97;5002811;28;20100;-82
2022/03/18 09:17:44;;;;;;;11.75;4.72;;;8.80;94.10;;;7.28;86.31;103211.19;5008038;28;20038;-82
2022/03/18 09:20:11;;;;;;;11.57;3.92;;;8.90;94.00;;;7.30;85.32;103218.25;5005893;28;20048;-82
2022/03/18 09:22:39;;;;;;;17.98;4.57;;;9.00;93.50;;;7.34;84.67;103225.22;5005769;28;20041;-82
2022/03/18 09:25:08;;;;;;;13.98;4.80;;;9.00;92.90;;;7.37;83.32;103230.44;4986995;28;20038;-82
2022/03/18 09:27:35;;;;;;;14.43;4.68;;;9.00;91.90;;;7.41;84.43;103226.56;4997281;28;20104;-82
2022/03/18 09:30:05;;;;;;;9.40;4.43;;;9.00;92.60;;;7.40;84.78;103227.53;5000328;28;20117;-82
2022/03/18 09:32:32;;;;;;;17.25;5.10;;;9.00;92.30;;;7.49;84.31;103217.97;4980656;28;20046;-82
2022/03/18 09:35:00;;;;;;;11.82;4.75;;;9.10;92.40;;;7.60;82.90;103220.84;4996460;28;20038;-82
2022/03/18 09:37:27;;;;;;;16.38;4.90;;;9.20;92.60;;;7.70;82.78;103215.72;4982431;28;20054;-82
2022/03/18 09:39:55;;;;;;;13.75;5.03;;;9.20;92.30;;;7.69;83.84;103227.53;4997812;28;20125;-82
2022/03/18 09:42:22;;;;;;;16.30;4.25;;;9.30;91.70;;;7.71;80.40;103233.72;4997227;28;20128;-82
2022/03/18 09:44:49;;;;;;;9.43;3.53;;;9.30;90.70;;;7.72;79.01;103243.59;4999925;28;20092;-82
2022/03/18 09:47:21;;;;;;;10.63;4.00;;;9.30;89.20;;;7.74;79.98;103243.50;4982016;28;20056;-82
2022/03/18 09:49:49;;;;;;;11.60;3.85;;;9.40;89.80;;;7.76;79.87;103246.97;4997845;28;20109;-82
2022/03/18 09:52:16;;;;;;;12.32;4.00;;;9.40;89.40;;;7.77;78.38;103241.47;4996502;28;20045;-82
2022/03/18 09:54:44;;;;;;;11.13;4.35;;;9.40;89.40;;;7.79;80.14;103242.22;5001204;28;20049;-82
2022/03/18 09:57:11;;;;;;;14.32;3.90;;;9.40;89.60;;;7.83;79.50;103243.75;5000309;28;20450;-82
2022/03/18 09:59:38;;;;;;;16.55;5.10;;;9.40;89.20;;;7.86;80.05;103249.94;5002209;28;21268;-82
2022/03/18 10:02:29;;;;;;;12.95;4.35;;;9.50;90.00;;;7.91;80.50;103256.81;5001038;28;20050;-82
2022/03/18 10:04:58;;;;;;;10.68;4.05;;;9.50;89.90;;;8.04;78.82;103251.47;5007139;28;20735;-82
2022/03/18 10:07:27;;;;;;;14.23;4.20;;;9.60;89.80;;;8.08;79.07;103253.00;5009663;28;20073;-82
2022/03/18 10:10:10;;;;;;;11.85;4.45;;;9.70;89.70;;;8.09;78.37;103257.47;4985364;28;20408;-81
2022/03/18 10:12:40;;;;;;;11.10;4.45;;;9.70;89.10;;;8.09;78.22;103260.19;5005449;28;20042;-81
2022/03/18 10:15:14;;;;;;;11.85;4.60;;;9.70;89.10;;;8.15;77.51;103256.22;5003919;28;20122;-81
2022/03/18 10:17:47;;;;;;;13.25;5.13;;;9.70;88.80;;;8.19;77.17;103253.19;5007461;28;20121;-81
2022/03/18 10:20:33;;;;;;;14.95;4.70;;;9.90;89.10;;;8.26;77.18;103261.75;5004323;28;20181;-81
2022/03/18 10:23:18;;;;;;;13.18;4.82;;;9.80;88.60;;;8.32;75.44;103241.50;5003891;28;20113;-81
2022/03/18 10:25:50;;;;;;;12.68;4.47;;;9.80;88.10;;;8.38;75.00;103246.53;5009342;28;20096;-81
2022/03/18 10:28:36;;;;;;;10.13;4.57;;;9.90;87.10;;;8.39;76.28;103250.97;5006255;28;20112;-82